Eva Schulte — 9V8141 — position and weather

sailwx.info

Track history (hours):
 
Tides and Currents Weather Stations Pressure Air Temp Water Temp Dewpoint Dewpoint Depression Visibility Wind Speed Wind Dir Waves Ship Positions

Eva Schulte

Last reported at 2018-Jun-16 17:25 UTC. Time now 2018-Jun-18 17:22 UTC.
Position N 39°14' W 009°57'.

Length 145 m; draft 7.7 m.

Type: Tanker. MMSI: 564739000.

Date/timePositionNaut miles runAvg speedWind from/ knotsBaromVisibWave heightAir tempDewpointWater temp
2018-Jun-16 17:25N 39°14' W 009°57'410.3
2018-Jun-16 17:00N 39°09' W 009°57'510.0
2018-Jun-16 16:29N 39°04' W 009°57'510.4
2018-Jun-16 16:00N 38°59' W 009°57'510.6
2018-Jun-16 15:30N 38°54' W 009°57'510.2
2018-Jun-16 15:00N 38°49' W 009°57'510.3
2018-Jun-16 14:30N 38°44' W 009°57'510.1
2018-Jun-16 14:00N 38°39' W 009°56'5 9.9
2018-Jun-16 13:30N 38°34' W 009°54'5 9.8
2018-Jun-16 13:01N 38°29' W 009°53'5 9.5
2018-Jun-16 12:30N 38°24' W 009°52'5 9.5
2018-Jun-16 12:00N 38°20' W 009°51'5 9.3
2018-Jun-16 11:30N 38°15' W 009°49'5 9.2
2018-Jun-16 11:00N 38°11' W 009°47'5 9.3
2018-Jun-16 10:29N 38°06' W 009°46'5 9.2
2018-Jun-16 09:59N 38°02' W 009°45'4 9.1
2018-Jun-16 09:30N 37°57' W 009°44'5 9.1
2018-Jun-16 08:58N 37°53' W 009°42'6 9.0
2018-Jun-16 08:15N 37°46' W 009°41'2 9.0
2018-Jun-16 08:00N 37°44' W 009°40'4 8.8
2018-Jun-16 07:30N 37°40' W 009°39'5 9.4
2018-Jun-16 06:59N 37°35' W 009°37'5 9.1
2018-Jun-16 06:26N 37°30' W 009°36'24 9.1
2018-Jun-16 03:49N 37°07' W 009°29'3 9.2
2018-Jun-16 03:29N 37°04' W 009°29'4 9.3
2018-Jun-16 03:00N 36°60' W 009°28'5 9.6
2018-Jun-16 02:27N 36°55' W 009°26'4 9.5
2018-Jun-16 02:00N 36°51' W 009°24'19 9.5
2018-Jun-15 23:59N 36°39' W 009°04'4 9.3
2018-Jun-15 23:31N 36°38' W 008°59'5 9.6
2018-Jun-15 23:00N 36°37' W 008°53'510.3
2018-Jun-15 22:30N 36°35' W 008°47'510.6
2018-Jun-15 22:00N 36°34' W 008°41'510.7
2018-Jun-15 21:30N 36°32' W 008°35'610.9
2018-Jun-15 20:59N 36°30' W 008°28'610.9
2018-Jun-15 20:28N 36°29' W 008°21'510.9
2018-Jun-15 20:00N 36°27' W 008°15'611.1
2018-Jun-15 19:30N 36°26' W 008°09'3311.7
2018-Jun-15 16:42N 36°16' W 007°30'9411.6
2018-Jun-15 08:33N 35°58' W 005°35'1 9.6
2018-Jun-15 08:27N 35°58' W 005°34'4 9.7
2018-Jun-15 08:00N 35°60' W 005°29'5 9.2
2018-Jun-15 07:30N 36°01' W 005°23'5 9.8
2018-Jun-15 07:00N 36°02' W 005°17'21810.7
2018-Jun-14 10:40N 37°14' W 001°02'311.9
2018-Jun-14 10:26N 37°16' W 000°59'512.1
2018-Jun-14 10:00N 37°20' W 000°54'612.0
2018-Jun-14 09:30N 37°24' W 000°49'711.9
2018-Jun-14 08:55N 37°28' W 000°41'712.0
2018-Jun-14 08:21N 37°33' W 000°35'411.9
2018-Jun-14 08:00N 37°36' W 000°32'612.1
2018-Jun-14 07:30N 37°41' W 000°28'612.0
2018-Jun-14 06:59N 37°46' W 000°24'711.8
2018-Jun-14 06:24N 37°52' W 000°19'612.2
2018-Jun-14 05:55N 37°57' W 000°15'511.5
2018-Jun-14 05:31N 38°01' W 000°12'711.6
2018-Jun-14 04:57N 38°06' W 000°07'611.9
2018-Jun-14 04:24N 38°12' W 000°03'911.9
2018-Jun-14 03:36N 38°20' E 000°04'  
2018-Jun-10 05:05N 38°05' W 000°04'112.1
2018-Jun-10 05:00N 38°04' W 000°04'711.9
2018-Jun-10 04:23N 37°58' W 000°10'911.9
2018-Jun-10 03:35N 37°50' W 000°16'412.0
2018-Jun-10 03:15N 37°47' W 000°19'312.0
2018-Jun-10 03:00N 37°44' W 000°21'612.2
2018-Jun-10 02:30N 37°39' W 000°26'612.6
2018-Jun-10 02:00N 37°34' W 000°30'612.8
2018-Jun-10 01:30N 37°30' W 000°36'612.7
2018-Jun-10 01:00N 37°25' W 000°42'612.5
2018-Jun-10 00:30N 37°21' W 000°48'612.4
2018-Jun-10 00:00N 37°17' W 000°54'612.5
2018-Jun-09 23:31N 37°13' W 000°59'21812.2
2018-Jun-09 05:35N 36°03' W 005°17'114.9
2018-Jun-09 05:30N 36°04' W 005°19'5 9.1
2018-Jun-09 04:57N 36°05' W 005°25'0 0.2
2018-Jun-09 04:21N 36°05' W 005°25'0 0.1
2018-Jun-09 02:57N 36°05' W 005°25'0 0.0
2018-Jun-09 02:27N 36°05' W 005°24'0 0.0
2018-Jun-09 01:57N 36°05' W 005°24'0 0.1
2018-Jun-09 00:39N 36°05' W 005°24'0 0.2
2018-Jun-09 00:21N 36°05' W 005°25'0 0.1
2018-Jun-08 23:57N 36°05' W 005°25'0 0.1
2018-Jun-08 23:27N 36°05' W 005°25'0 0.0
2018-Jun-08 22:09N 36°05' W 005°25'0 0.1
2018-Jun-08 21:57N 36°05' W 005°25'0 0.2
2018-Jun-08 21:27N 36°05' W 005°24'1 0.4
2018-Jun-08 19:15N 36°05' W 005°23'1 4.7
2018-Jun-08 18:58N 36°04' W 005°22'510.1
2018-Jun-08 18:30N 35°60' W 005°23'26411.6
2018-Jun-07 19:38N 38°19' W 010°05'313.0
2018-Jun-07 19:26N 38°21' W 010°06'613.4
2018-Jun-07 19:00N 38°27' W 010°07'1513.4
2018-Jun-07 17:52N 38°42' W 010°12'613.7
2018-Jun-07 17:28N 38°47' W 010°12'813.7
2018-Jun-07 16:54N 38°55' W 010°12'613.6
2018-Jun-07 16:28N 39°01' W 010°12'  
Track history (hours):
 
Tides and Currents Weather Stations Pressure Air Temp Water Temp Dewpoint Dewpoint Depression Visibility Wind Speed Wind Dir Waves Ship Positions

Eva Schulte

Last reported at 2018-Jun-16 17:25 UTC. Time now 2018-Jun-18 17:22 UTC.
Position N 39°14' W 009°57'.

Length 145 m; draft 7.7 m.

Type: Tanker. MMSI: 564739000.

Date/timePositionNaut miles runAvg speedWind from/ knotsBaromVisibWave heightAir tempDewpointWater temp
2018-Jun-16 17:25N 39°14' W 009°57'410.3
2018-Jun-16 17:00N 39°09' W 009°57'510.0
2018-Jun-16 16:29N 39°04' W 009°57'510.4
2018-Jun-16 16:00N 38°59' W 009°57'510.6
2018-Jun-16 15:30N 38°54' W 009°57'510.2
2018-Jun-16 15:00N 38°49' W 009°57'510.3
2018-Jun-16 14:30N 38°44' W 009°57'510.1
2018-Jun-16 14:00N 38°39' W 009°56'5 9.9
2018-Jun-16 13:30N 38°34' W 009°54'5 9.8
2018-Jun-16 13:01N 38°29' W 009°53'5 9.5
2018-Jun-16 12:30N 38°24' W 009°52'5 9.5
2018-Jun-16 12:00N 38°20' W 009°51'5 9.3
2018-Jun-16 11:30N 38°15' W 009°49'5 9.2
2018-Jun-16 11:00N 38°11' W 009°47'5 9.3
2018-Jun-16 10:29N 38°06' W 009°46'5 9.2
2018-Jun-16 09:59N 38°02' W 009°45'4 9.1
2018-Jun-16 09:30N 37°57' W 009°44'5 9.1
2018-Jun-16 08:58N 37°53' W 009°42'6 9.0
2018-Jun-16 08:15N 37°46' W 009°41'2 9.0
2018-Jun-16 08:00N 37°44' W 009°40'4 8.8
2018-Jun-16 07:30N 37°40' W 009°39'5 9.4
2018-Jun-16 06:59N 37°35' W 009°37'5 9.1
2018-Jun-16 06:26N 37°30' W 009°36'24 9.1
2018-Jun-16 03:49N 37°07' W 009°29'3 9.2
2018-Jun-16 03:29N 37°04' W 009°29'4 9.3
2018-Jun-16 03:00N 36°60' W 009°28'5 9.6
2018-Jun-16 02:27N 36°55' W 009°26'4 9.5
2018-Jun-16 02:00N 36°51' W 009°24'19 9.5
2018-Jun-15 23:59N 36°39' W 009°04'4 9.3
2018-Jun-15 23:31N 36°38' W 008°59'5 9.6
2018-Jun-15 23:00N 36°37' W 008°53'510.3
2018-Jun-15 22:30N 36°35' W 008°47'510.6
2018-Jun-15 22:00N 36°34' W 008°41'510.7
2018-Jun-15 21:30N 36°32' W 008°35'610.9
2018-Jun-15 20:59N 36°30' W 008°28'610.9
2018-Jun-15 20:28N 36°29' W 008°21'510.9
2018-Jun-15 20:00N 36°27' W 008°15'611.1
2018-Jun-15 19:30N 36°26' W 008°09'3311.7
2018-Jun-15 16:42N 36°16' W 007°30'9411.6
2018-Jun-15 08:33N 35°58' W 005°35'1 9.6
2018-Jun-15 08:27N 35°58' W 005°34'4 9.7
2018-Jun-15 08:00N 35°60' W 005°29'5 9.2
2018-Jun-15 07:30N 36°01' W 005°23'5 9.8
2018-Jun-15 07:00N 36°02' W 005°17'21810.7
2018-Jun-14 10:40N 37°14' W 001°02'311.9
2018-Jun-14 10:26N 37°16' W 000°59'512.1
2018-Jun-14 10:00N 37°20' W 000°54'612.0
2018-Jun-14 09:30N 37°24' W 000°49'711.9
2018-Jun-14 08:55N 37°28' W 000°41'712.0
2018-Jun-14 08:21N 37°33' W 000°35'411.9
2018-Jun-14 08:00N 37°36' W 000°32'612.1
2018-Jun-14 07:30N 37°41' W 000°28'612.0
2018-Jun-14 06:59N 37°46' W 000°24'711.8
2018-Jun-14 06:24N 37°52' W 000°19'612.2
2018-Jun-14 05:55N 37°57' W 000°15'511.5
2018-Jun-14 05:31N 38°01' W 000°12'711.6
2018-Jun-14 04:57N 38°06' W 000°07'611.9
2018-Jun-14 04:24N 38°12' W 000°03'911.9
2018-Jun-14 03:36N 38°20' E 000°04'  
2018-Jun-10 05:05N 38°05' W 000°04'112.1
2018-Jun-10 05:00N 38°04' W 000°04'711.9
2018-Jun-10 04:23N 37°58' W 000°10'911.9
2018-Jun-10 03:35N 37°50' W 000°16'412.0
2018-Jun-10 03:15N 37°47' W 000°19'312.0
2018-Jun-10 03:00N 37°44' W 000°21'612.2
2018-Jun-10 02:30N 37°39' W 000°26'612.6
2018-Jun-10 02:00N 37°34' W 000°30'612.8
2018-Jun-10 01:30N 37°30' W 000°36'612.7
2018-Jun-10 01:00N 37°25' W 000°42'612.5
2018-Jun-10 00:30N 37°21' W 000°48'612.4
2018-Jun-10 00:00N 37°17' W 000°54'612.5
2018-Jun-09 23:31N 37°13' W 000°59'21812.2
2018-Jun-09 05:35N 36°03' W 005°17'114.9
2018-Jun-09 05:30N 36°04' W 005°19'5 9.1
2018-Jun-09 04:57N 36°05' W 005°25'0 0.2
2018-Jun-09 04:21N 36°05' W 005°25'0 0.1
2018-Jun-09 02:57N 36°05' W 005°25'0 0.0
2018-Jun-09 02:27N 36°05' W 005°24'0 0.0
2018-Jun-09 01:57N 36°05' W 005°24'0 0.1
2018-Jun-09 00:39N 36°05' W 005°24'0 0.2
2018-Jun-09 00:21N 36°05' W 005°25'0 0.1
2018-Jun-08 23:57N 36°05' W 005°25'0 0.1
2018-Jun-08 23:27N 36°05' W 005°25'0 0.0
2018-Jun-08 22:09N 36°05' W 005°25'0 0.1
2018-Jun-08 21:57N 36°05' W 005°25'0 0.2
2018-Jun-08 21:27N 36°05' W 005°24'1 0.4
2018-Jun-08 19:15N 36°05' W 005°23'1 4.7
2018-Jun-08 18:58N 36°04' W 005°22'510.1
2018-Jun-08 18:30N 35°60' W 005°23'26411.6
2018-Jun-07 19:38N 38°19' W 010°05'313.0
2018-Jun-07 19:26N 38°21' W 010°06'613.4
2018-Jun-07 19:00N 38°27' W 010°07'1513.4
2018-Jun-07 17:52N 38°42' W 010°12'613.7
2018-Jun-07 17:28N 38°47' W 010°12'813.7
2018-Jun-07 16:54N 38°55' W 010°12'613.6
2018-Jun-07 16:28N 39°01' W 010°12'  

Dump ship's entire track history